Time;durP1;ratioP1;P1;durP2;ratioP2;P2;SDS_P1;SDS_P2;PMS_P1;PMS_P2;Temp;Humidity;BMP_temperature;BMP_pressure;BME280_temperature;BME280_humidity;BME280_pressure;Samples;Min_cycle;Max_cycle;Signal;HPM_P1;HPM_P2
2022/05/26 00:01:49;;;;;;;;;4.67;4.67;;;;;;;;5077729;28;45421;-75
2022/05/26 00:04:15;;;;;;;;;10.33;5.33;;;;;;;;5077444;27;45424;-75
2022/05/26 00:06:40;;;;;;;;;5.67;4.67;;;;;;;;5077410;27;45292;-75
2022/05/26 00:09:08;;;;;;;;;6.33;4.00;;;;;;;;5077169;28;45283;-76
2022/05/26 00:11:37;;;;;;;;;4.00;4.00;;;;;;;;5077706;28;45418;-75
2022/05/26 00:14:08;;;;;;;;;5.33;3.33;;;;;;;;5091543;27;46545;-75
2022/05/26 00:16:37;;;;;;;;;7.00;4.00;;;;;;;;5096216;27;45347;-75
2022/05/26 00:19:04;;;;;;;;;8.00;5.00;;;;;;;;5098117;27;45323;-75
2022/05/26 00:21:30;;;;;;;;;5.67;3.67;;;;;;;;5098134;27;45239;-76
2022/05/26 00:23:58;;;;;;;;;7.00;4.33;;;;;;;;5097121;27;45373;-75
2022/05/26 00:26:27;;;;;;;;;9.67;4.00;;;;;;;;5097562;27;45445;-75
2022/05/26 00:28:52;;;;;;;;;3.67;3.67;;;;;;;;5084335;27;45476;-75
2022/05/26 00:31:18;;;;;;;;;5.33;4.00;;;;;;;;5077469;28;45451;-76
2022/05/26 00:33:43;;;;;;;;;5.00;5.00;;;;;;;;5076875;28;45619;-75
2022/05/26 00:36:13;;;;;;;;;5.33;4.67;;;;;;;;5077087;28;45263;-75
2022/05/26 00:38:38;;;;;;;;;7.33;4.33;;;;;;;;5085234;27;45473;-75
2022/05/26 00:41:05;;;;;;;;;9.00;4.67;;;;;;;;5097484;27;45348;-75
2022/05/26 00:43:31;;;;;;;;;13.33;7.00;;;;;;;;5097020;27;46596;-75
2022/05/26 00:46:00;;;;;;;;;15.00;9.67;;;;;;;;5078807;27;45420;-75
2022/05/26 00:48:38;;;;;;;;;12.33;6.67;;;;;;;;5077039;28;45305;-76
2022/05/26 00:51:04;;;;;;;;;5.00;5.00;;;;;;;;5077242;28;45735;-75
2022/05/26 00:53:33;;;;;;;;;7.00;6.00;;;;;;;;5076579;28;46565;-75
2022/05/26 00:56:05;;;;;;;;;10.00;6.67;;;;;;;;5079077;28;45340;-75
2022/05/26 00:58:35;;;;;;;;;11.00;5.33;;;;;;;;5080320;28;45337;-75
2022/05/26 01:01:01;;;;;;;;;6.67;3.67;;;;;;;;5098668;27;45418;-75
2022/05/26 01:03:27;;;;;;;;;4.75;4.25;;;;;;;;5100323;27;46089;-75
2022/05/26 01:06:04;;;;;;;;;12.33;5.00;;;;;;;;5100609;27;45396;-75
2022/05/26 01:08:44;;;;;;;;;6.67;3.67;;;;;;;;5101158;27;45390;-76
2022/05/26 01:11:09;;;;;;;;;13.67;5.67;;;;;;;;5100600;27;45411;-75
2022/05/26 01:13:39;;;;;;;;;7.67;4.67;;;;;;;;5098642;27;46604;-75
2022/05/26 01:16:13;;;;;;;;;5.00;4.67;;;;;;;;5100378;27;45397;-75
2022/05/26 01:18:42;;;;;;;;;11.67;5.00;;;;;;;;5100740;27;45327;-75
2022/05/26 01:21:14;;;;;;;;;6.67;5.67;;;;;;;;5092367;27;45462;-76
2022/05/26 01:23:48;;;;;;;;;7.67;4.00;;;;;;;;5079874;28;46712;-75
2022/05/26 01:26:20;;;;;;;;;9.67;6.67;;;;;;;;5079726;28;45430;-75
2022/05/26 01:28:45;;;;;;;;;6.00;5.33;;;;;;;;5083306;27;45418;-75
2022/05/26 01:31:29;;;;;;;;;8.33;6.33;;;;;;;;5080025;27;45351;-75
2022/05/26 01:33:54;;;;;;;;;10.67;5.33;;;;;;;;5079857;27;46529;-75
2022/05/26 01:36:27;;;;;;;;;15.67;6.00;;;;;;;;5079622;28;45403;-75
2022/05/26 01:38:58;;;;;;;;;12.33;6.33;;;;;;;;5079754;28;45259;-75
2022/05/26 01:41:26;;;;;;;;;9.67;5.67;;;;;;;;5079899;28;45362;-75
2022/05/26 01:43:51;;;;;;;;;6.67;4.00;;;;;;;;5095087;27;46512;-75
2022/05/26 01:46:38;;;;;;;;;7.00;5.00;;;;;;;;5099896;27;45679;-75
2022/05/26 01:49:12;;;;;;;;;8.33;7.33;;;;;;;;5081367;27;45810;-75
2022/05/26 01:51:40;;;;;;;;;9.67;5.67;;;;;;;;5079608;28;45539;-75
2022/05/26 01:54:19;;;;;;;;;11.00;7.00;;;;;;;;5079225;27;45256;-75
2022/05/26 01:56:44;;;;;;;;;9.00;5.00;;;;;;;;5079174;28;45308;-76
2022/05/26 01:59:13;;;;;;;;;9.00;5.00;;;;;;;;5080596;27;45414;-74
2022/05/26 02:02:18;;;;;;;;;8.00;4.33;;;;;;;;5079923;28;45210;-75
2022/05/26 02:04:46;;;;;;;;;8.67;5.00;;;;;;;;5036533;28;45334;-75
2022/05/26 02:07:16;;;;;;;;;9.33;6.67;;;;;;;;5035051;28;45535;-75
2022/05/26 02:09:42;;;;;;;;;5.33;4.00;;;;;;;;5036811;28;45466;-75
2022/05/26 02:12:14;;;;;;;;;6.67;4.67;;;;;;;;5036755;28;45278;-75
2022/05/26 02:14:56;;;;;;;;;6.00;5.67;;;;;;;;5036854;28;46680;-76
2022/05/26 02:17:32;;;;;;;;;7.00;5.00;;;;;;;;5036058;28;45492;-76
2022/05/26 02:20:06;;;;;;;;;11.00;6.67;;;;;;;;5036264;28;45538;-75
2022/05/26 02:22:51;;;;;;;;;8.00;5.33;;;;;;;;5036599;28;45227;-75
2022/05/26 02:25:18;;;;;;;;;6.33;5.00;;;;;;;;4995508;28;46329;-75
2022/05/26 02:27:44;;;;;;;;;7.00;7.00;;;;;;;;4982658;28;45465;-76
2022/05/26 02:30:10;;;;;;;;;12.00;6.00;;;;;;;;4992377;28;45452;-75
2022/05/26 02:33:01;;;;;;;;;7.67;5.67;;;;;;;;4996980;28;45475;-75
2022/05/26 02:35:28;;;;;;;;;8.67;5.67;;;;;;;;4994096;28;45608;-75
2022/05/26 02:38:01;;;;;;;;;14.00;7.67;;;;;;;;4996285;28;45385;-75
2022/05/26 02:40:29;;;;;;;;;9.00;7.00;;;;;;;;4996382;28;45433;-75
2022/05/26 02:42:57;;;;;;;;;10.33;5.33;;;;;;;;4996787;28;45453;-76
2022/05/26 02:45:31;;;;;;;;;6.00;6.00;;;;;;;;5015788;28;45589;-75
2022/05/26 02:48:06;;;;;;;;;9.67;7.00;;;;;;;;5014729;28;45585;-75
2022/05/26 02:50:38;;;;;;;;;8.00;5.33;;;;;;;;5016046;28;45400;-75
2022/05/26 02:53:18;;;;;;;;;5.67;4.00;;;;;;;;5016416;28;45515;-75
2022/05/26 02:56:22;;;;;;;;;5.00;4.00;;;;;;;;5026793;28;46670;-75
2022/05/26 02:59:23;;;;;;;;;6.00;5.67;;;;;;;;5016125;28;45353;-75
2022/05/26 03:01:55;;;;;;;;;7.00;4.00;;;;;;;;4976597;28;45521;-75
2022/05/26 03:04:34;;;;;;;;;10.00;5.00;;;;;;;;4976488;28;45706;-75
2022/05/26 03:07:03;;;;;;;;;6.67;4.00;;;;;;;;4976137;28;46525;-75
2022/05/26 03:09:32;;;;;;;;;6.00;5.67;;;;;;;;4976307;28;45382;-75
2022/05/26 03:11:57;;;;;;;;;6.50;4.25;;;;;;;;4976563;28;45313;-75
2022/05/26 03:14:23;;;;;;;;;5.00;5.00;;;;;;;;4976534;28;45410;-75
2022/05/26 03:16:49;;;;;;;;;5.00;5.00;;;;;;;;4974501;28;45427;-75
2022/05/26 03:19:14;;;;;;;;;6.33;4.67;;;;;;;;4975980;28;45812;-75
2022/05/26 03:21:40;;;;;;;;;9.00;4.33;;;;;;;;4976231;28;45271;-75
2022/05/26 03:24:06;;;;;;;;;6.00;3.67;;;;;;;;4976179;28;45510;-75
2022/05/26 03:26:31;;;;;;;;;7.67;6.67;;;;;;;;4975044;28;46890;-75
2022/05/26 03:28:56;;;;;;;;;8.00;6.67;;;;;;;;4985645;28;45401;-75
2022/05/26 03:31:21;;;;;;;;;8.33;6.33;;;;;;;;5015711;28;45644;-75
2022/05/26 03:41:59;;;;;;;;;9.00;7.00;;;;;;;;5088461;27;45457;-75
2022/05/26 03:44:28;;;;;;;;;9.00;6.75;;;;;;;;5098712;27;45271;-75
2022/05/26 03:46:54;;;;;;;;;11.00;6.00;;;;;;;;5098095;27;46574;-75
2022/05/26 03:49:19;;;;;;;;;7.75;5.00;;;;;;;;5098283;27;45683;-75
2022/05/26 03:51:47;;;;;;;;;9.33;6.67;;;;;;;;5095917;27;45196;-75
2022/05/26 03:54:12;;;;;;;;;6.67;6.67;;;;;;;;5077730;27;45467;-75
2022/05/26 03:56:40;;;;;;;;;6.00;6.00;;;;;;;;5077133;28;45663;-75
2022/05/26 03:59:06;;;;;;;;;10.00;6.33;;;;;;;;5077402;28;45323;-75
2022/05/26 04:01:31;;;;;;;;;10.33;7.00;;;;;;;;5077681;27;45444;-75
2022/05/26 04:03:56;;;;;;;;;9.67;7.00;;;;;;;;5077946;28;45333;-75
2022/05/26 04:06:22;;;;;;;;;15.67;7.00;;;;;;;;5077687;27;45672;-75
2022/05/26 04:08:48;;;;;;;;;9.67;6.33;;;;;;;;5098167;27;45430;-76
2022/05/26 04:11:13;;;;;;;;;8.00;5.67;;;;;;;;5098063;27;45736;-75
2022/05/26 04:13:39;;;;;;;;;5.67;4.33;;;;;;;;5097976;27;45490;-75
2022/05/26 04:16:04;;;;;;;;;14.67;9.00;;;;;;;;5097721;27;46232;-75
2022/05/26 04:18:29;;;;;;;;;8.00;6.33;;;;;;;;5097704;27;45334;-75
2022/05/26 04:21:02;;;;;;;;;13.33;9.67;;;;;;;;5098055;27;45355;-75
2022/05/26 04:23:27;;;;;;;;;12.67;8.33;;;;;;;;5077727;27;45309;-75
2022/05/26 04:25:52;;;;;;;;;8.67;5.33;;;;;;;;5077161;28;45356;-75
2022/05/26 04:28:18;;;;;;;;;12.67;8.67;;;;;;;;5077292;28;45451;-75
2022/05/26 04:30:43;;;;;;;;;13.00;8.33;;;;;;;;5080983;28;45364;-75
2022/05/26 04:33:08;;;;;;;;;10.67;7.00;;;;;;;;5081113;28;45511;-75
2022/05/26 04:35:33;;;;;;;;;11.33;7.33;;;;;;;;5080638;28;47438;-75
2022/05/26 04:37:59;;;;;;;;;11.33;6.00;;;;;;;;5093150;27;45391;-75
2022/05/26 04:40:24;;;;;;;;;11.67;7.00;;;;;;;;5101337;27;45364;-76
2022/05/26 04:42:49;;;;;;;;;6.67;6.33;;;;;;;;5101118;27;45299;-76
2022/05/26 04:45:14;;;;;;;;;10.00;6.00;;;;;;;;5101945;27;45405;-76
2022/05/26 04:47:40;;;;;;;;;9.00;8.00;;;;;;;;5099084;27;45310;-76
2022/05/26 04:50:06;;;;;;;;;9.00;7.33;;;;;;;;5101243;27;45773;-76
2022/05/26 04:52:31;;;;;;;;;7.33;6.00;;;;;;;;5101535;27;45215;-75
2022/05/26 04:54:56;;;;;;;;;9.33;5.67;;;;;;;;5100796;27;45478;-75
2022/05/26 04:57:23;;;;;;;;;45.67;38.33;;;;;;;;5100263;27;45302;-76
2022/05/26 04:59:48;;;;;;;;;12.67;10.67;;;;;;;;5100856;27;45542;-75
2022/05/26 05:02:15;;;;;;;;;8.67;8.00;;;;;;;;5100739;27;45268;-75
2022/05/26 05:04:42;;;;;;;;;7.00;7.00;;;;;;;;5100838;27;45426;-75
2022/05/26 05:07:09;;;;;;;;;8.33;6.33;;;;;;;;5100777;27;45251;-76
2022/05/26 05:09:35;;;;;;;;;6.67;5.00;;;;;;;;5101058;27;45393;-75
2022/05/26 05:12:00;;;;;;;;;9.00;6.67;;;;;;;;5100469;27;45313;-75
2022/05/26 05:14:25;;;;;;;;;11.00;9.00;;;;;;;;5090318;27;46306;-76
2022/05/26 05:16:51;;;;;;;;;12.00;7.00;;;;;;;;5080251;27;45332;-75
2022/05/26 05:19:17;;;;;;;;;22.00;20.67;;;;;;;;5079953;28;45288;-75
2022/05/26 05:22:18;;;;;;;;;9.67;7.00;;;;;;;;5088234;27;45280;-75
2022/05/26 05:24:46;;;;;;;;;8.67;5.33;;;;;;;;5077640;28;45810;-75
2022/05/26 05:27:13;;;;;;;;;9.33;7.00;;;;;;;;5077509;28;45383;-75
2022/05/26 05:29:40;;;;;;;;;8.00;6.00;;;;;;;;5077833;28;45639;-75
2022/05/26 05:32:11;;;;;;;;;6.00;5.33;;;;;;;;5060023;28;45571;-75
2022/05/26 05:34:38;;;;;;;;;8.00;7.00;;;;;;;;5057457;28;46136;-76
2022/05/26 05:37:05;;;;;;;;;7.00;5.67;;;;;;;;5062676;27;45291;-75
2022/05/26 05:39:30;;;;;;;;;8.33;6.67;;;;;;;;5077698;28;45356;-75
2022/05/26 05:41:55;;;;;;;;;9.33;7.33;;;;;;;;5077077;28;45434;-75
2022/05/26 05:44:21;;;;;;;;;6.00;6.00;;;;;;;;5077356;28;46175;-75
2022/05/26 05:46:57;;;;;;;;;11.00;9.33;;;;;;;;5077392;27;45810;-75
2022/05/26 05:49:26;;;;;;;;;8.00;5.00;;;;;;;;5077499;28;45411;-75
2022/05/26 05:51:52;;;;;;;;;7.00;4.67;;;;;;;;5077682;28;45439;-76
2022/05/26 05:54:18;;;;;;;;;8.00;6.67;;;;;;;;5077316;28;45704;-75
2022/05/26 05:56:44;;;;;;;;;7.67;6.00;;;;;;;;5077113;28;45459;-75
2022/05/26 05:59:09;;;;;;;;;8.67;7.33;;;;;;;;5078767;27;45407;-75
2022/05/26 06:01:34;;;;;;;;;5.33;4.67;;;;;;;;5083198;27;45421;-75
2022/05/26 06:04:00;;;;;;;;;5.00;4.75;;;;;;;;5113929;27;45599;-75
2022/05/26 06:06:25;;;;;;;;;7.67;4.33;;;;;;;;5119810;27;45367;-75
2022/05/26 06:08:50;;;;;;;;;7.00;4.33;;;;;;;;5120509;27;45484;-75
2022/05/26 06:11:16;;;;;;;;;4.00;4.00;;;;;;;;5120623;27;45307;-75
2022/05/26 06:13:41;;;;;;;;;5.50;5.50;;;;;;;;5120085;27;45314;-75
2022/05/26 06:16:06;;;;;;;;;5.00;5.00;;;;;;;;5120045;27;45368;-75
2022/05/26 06:18:32;;;;;;;;;5.00;5.00;;;;;;;;5120524;27;45391;-74
2022/05/26 06:21:01;;;;;;;;;7.67;4.67;;;;;;;;5118756;27;45446;-75
2022/05/26 06:23:26;;;;;;;;;8.00;5.33;;;;;;;;5120177;27;45673;-75
2022/05/26 06:25:51;;;;;;;;;8.25;5.00;;;;;;;;5120139;27;45365;-75
2022/05/26 06:31:00;;;;;;;;;7.00;4.50;;;;;;;;5099567;27;45418;-75
2022/05/26 06:38:56;;;;;;;;;4.67;4.00;;;;;;;;5099462;27;45263;-75
2022/05/26 06:44:05;;;;;;;;;5.67;4.33;;;;;;;;5098878;27;45913;-75
2022/05/26 06:46:31;;;;;;;;;4.00;4.00;;;;;;;;5099084;27;45241;-75
2022/05/26 06:48:56;;;;;;;;;6.00;4.00;;;;;;;;5100499;27;45471;-75
2022/05/26 06:51:26;;;;;;;;;4.67;4.33;;;;;;;;5099449;27;45298;-75
2022/05/26 06:53:51;;;;;;;;;7.00;5.00;;;;;;;;5104559;27;45459;-75
2022/05/26 06:56:16;;;;;;;;;6.00;5.00;;;;;;;;5119350;27;45459;-75
2022/05/26 06:58:41;;;;;;;;;5.33;5.00;;;;;;;;5119619;27;45356;-75
2022/05/26 07:01:06;;;;;;;;;3.50;3.50;;;;;;;;5118863;27;45261;-75
2022/05/26 07:03:32;;;;;;;;;6.75;3.50;;;;;;;;5118195;27;46524;-75
2022/05/26 07:05:57;;;;;;;;;7.00;4.00;;;;;;;;5119309;27;45359;-75
2022/05/26 07:08:22;;;;;;;;;5.00;5.00;;;;;;;;5119192;27;45408;-75
2022/05/26 07:10:50;;;;;;;;;3.00;3.00;;;;;;;;5119823;27;45321;-75
2022/05/26 07:13:15;;;;;;;;;10.67;5.33;;;;;;;;5119023;27;45316;-75
2022/05/26 07:15:40;;;;;;;;;5.33;4.00;;;;;;;;5111991;27;45324;-75
2022/05/26 07:18:06;;;;;;;;;4.00;4.00;;;;;;;;5098614;27;45354;-75
2022/05/26 07:20:33;;;;;;;;;9.67;6.00;;;;;;;;5098887;27;45477;-75
2022/05/26 07:22:59;;;;;;;;;4.00;3.00;;;;;;;;5098707;27;45336;-75
2022/05/26 07:25:24;;;;;;;;;6.00;4.00;;;;;;;;5098994;27;45403;-75
2022/05/26 07:27:49;;;;;;;;;6.25;3.25;;;;;;;;5119342;27;45320;-75
2022/05/26 07:30:15;;;;;;;;;8.33;4.00;;;;;;;;5118469;27;45395;-75
2022/05/26 07:32:40;;;;;;;;;4.00;2.33;;;;;;;;5118996;27;46501;-72
2022/05/26 07:35:05;;;;;;;;;6.33;4.00;;;;;;;;5102523;27;45204;-75
2022/05/26 07:42:58;;;;;;;;;5.67;2.67;;;;;;;;5098220;27;45455;-75
2022/05/26 07:45:24;;;;;;;;;4.67;3.00;;;;;;;;5098149;27;45276;-75
2022/05/26 07:47:49;;;;;;;;;4.33;4.33;;;;;;;;5111222;27;45532;-75
2022/05/26 07:50:19;;;;;;;;;2.00;1.67;;;;;;;;5098625;27;45368;-75
2022/05/26 07:52:46;;;;;;;;;3.33;3.33;;;;;;;;5098199;27;45665;-75
2022/05/26 07:55:11;;;;;;;;;3.33;3.00;;;;;;;;5097051;27;45382;-75
2022/05/26 07:57:37;;;;;;;;;3.67;1.33;;;;;;;;5097689;27;45142;-75
2022/05/26 08:00:03;;;;;;;;;34.67;31.33;;;;;;;;5098218;27;45158;-75
2022/05/26 08:02:28;;;;;;;;;4.33;3.00;;;;;;;;5098472;27;46457;-76
2022/05/26 08:04:53;;;;;;;;;6.00;3.00;;;;;;;;5116209;27;45735;-75
2022/05/26 08:07:18;;;;;;;;;2.00;2.00;;;;;;;;5118628;27;45409;-76
2022/05/26 08:09:44;;;;;;;;;6.00;6.00;;;;;;;;5119056;27;45259;-75
2022/05/26 08:12:13;;;;;;;;;3.00;3.00;;;;;;;;5118424;27;46726;-75
2022/05/26 08:14:39;;;;;;;;;2.00;2.00;;;;;;;;5117525;27;45508;-75
2022/05/26 08:17:04;;;;;;;;;6.00;5.67;;;;;;;;5101938;27;45382;-76
2022/05/26 08:19:29;;;;;;;;;2.67;2.67;;;;;;;;5098163;27;45292;-76
2022/05/26 08:21:55;;;;;;;;;2.33;2.33;;;;;;;;5097757;27;46294;-76
2022/05/26 08:24:20;;;;;;;;;3.00;2.00;;;;;;;;5098773;27;45577;-76
2022/05/26 08:26:48;;;;;;;;;1.33;1.33;;;;;;;;5118503;27;45262;-77
2022/05/26 08:29:14;;;;;;;;;3.00;3.00;;;;;;;;5118633;27;45469;-76
2022/05/26 08:31:39;;;;;;;;;2.33;2.33;;;;;;;;5118062;27;46869;-76
2022/05/26 08:34:05;;;;;;;;;2.00;2.00;;;;;;;;5118423;27;45386;-76
2022/05/26 08:36:30;;;;;;;;;3.00;3.00;;;;;;;;5113799;27;45388;-75
2022/05/26 08:38:55;;;;;;;;;1.67;1.00;;;;;;;;5115682;27;45685;-74
2022/05/26 08:41:41;;;;;;;;;1.00;1.00;;;;;;;;5118077;27;46557;-75
2022/05/26 08:44:11;;;;;;;;;3.00;3.00;;;;;;;;5117347;27;45389;-75
2022/05/26 08:46:38;;;;;;;;;3.00;3.00;;;;;;;;5118225;27;45371;-75
2022/05/26 08:49:09;;;;;;;;;3.67;3.67;;;;;;;;5118655;27;45363;-75
2022/05/26 08:51:37;;;;;;;;;2.33;2.33;;;;;;;;5117892;27;46576;-75
2022/05/26 08:54:04;;;;;;;;;3.00;2.00;;;;;;;;5097404;27;45252;-75
2022/05/26 08:56:29;;;;;;;;;3.00;2.00;;;;;;;;5097371;27;45325;-75
2022/05/26 08:58:57;;;;;;;;;4.00;2.00;;;;;;;;5111895;27;45331;-75
2022/05/26 09:01:27;;;;;;;;;2.00;2.00;;;;;;;;5117684;27;45656;-75
2022/05/26 09:03:53;;;;;;;;;5.00;4.00;;;;;;;;5108045;27;45235;-75
2022/05/26 09:06:19;;;;;;;;;4.67;1.33;;;;;;;;5113821;27;45479;-74
2022/05/26 09:14:18;;;;;;;;;3.00;1.33;;;;;;;;5117698;27;45333;-75
2022/05/26 09:16:44;;;;;;;;;6.00;1.00;;;;;;;;5119905;27;45402;-75
2022/05/26 09:19:17;;;;;;;;;2.00;2.00;;;;;;;;5121053;27;45296;-75
2022/05/26 09:21:44;;;;;;;;;3.00;1.33;;;;;;;;5120984;27;47157;-75
2022/05/26 09:24:18;;;;;;;;;3.00;3.00;;;;;;;;5121077;27;45408;-74
2022/05/26 09:26:45;;;;;;;;;5.00;2.00;;;;;;;;5121120;27;45396;-74
2022/05/26 09:29:11;;;;;;;;;2.00;2.00;;;;;;;;5121354;27;45241;-74
2022/05/26 09:31:43;;;;;;;;;2.00;1.67;;;;;;;;5114113;27;46534;-74
2022/05/26 09:34:14;;;;;;;;;2.00;2.00;;;;;;;;5120758;27;45389;-75
2022/05/26 09:36:50;;;;;;;;;3.00;3.00;;;;;;;;5121385;27;45569;-74
2022/05/26 09:39:22;;;;;;;;;1.00;1.00;;;;;;;;5112565;27;45432;-75
2022/05/26 09:41:50;;;;;;;;;3.00;3.00;;;;;;;;5100800;27;45445;-75
2022/05/26 09:44:34;;;;;;;;;3.00;1.33;;;;;;;;5120813;27;45442;-75
2022/05/26 09:47:02;;;;;;;;;2.00;2.00;;;;;;;;5120671;27;45314;-75
2022/05/26 09:49:32;;;;;;;;;1.67;1.67;;;;;;;;5119225;27;45339;-74
2022/05/26 09:52:09;;;;;;;;;2.33;1.67;;;;;;;;5105711;27;46706;-74
2022/05/26 09:54:34;;;;;;;;;3.00;1.67;;;;;;;;5099559;27;45335;-74
2022/05/26 09:57:17;;;;;;;;;1.33;1.33;;;;;;;;5100203;27;45383;-75
2022/05/26 09:59:44;;;;;;;;;16.00;13.00;;;;;;;;5100334;27;45429;-74
2022/05/26 10:02:25;;;;;;;;;1.00;0.33;;;;;;;;5100749;27;46498;-74
2022/05/26 10:05:00;;;;;;;;;1.00;1.00;;;;;;;;5109153;27;45703;-74
2022/05/26 10:07:30;;;;;;;;;0.00;0.00;;;;;;;;5099832;27;45628;-74
2022/05/26 10:10:02;;;;;;;;;0.00;0.00;;;;;;;;5102119;27;45456;-73
2022/05/26 10:12:34;;;;;;;;;0.00;0.00;;;;;;;;5119849;27;45401;-77
2022/05/26 10:15:18;;;;;;;;;0.67;0.67;;;;;;;;5119767;27;45433;-72
2022/05/26 10:17:49;;;;;;;;;1.00;1.00;;;;;;;;5120082;27;45377;-72
2022/05/26 10:20:14;;;;;;;;;1.00;0.00;;;;;;;;5096185;27;45359;-75
2022/05/26 10:22:44;;;;;;;;;0.00;0.00;;;;;;;;5078374;27;45455;-72
2022/05/26 10:25:12;;;;;;;;;0.67;0.33;;;;;;;;5085307;27;45350;-72
2022/05/26 10:28:08;;;;;;;;;1.33;1.00;;;;;;;;5098879;27;45375;-70
2022/05/26 10:30:40;;;;;;;;;0.67;0.67;;;;;;;;5099681;27;45465;-73
2022/05/26 10:33:09;;;;;;;;;0.67;0.67;;;;;;;;5111379;27;45327;-72
2022/05/26 10:35:34;;;;;;;;;0.00;0.00;;;;;;;;5119971;27;45431;-72
2022/05/26 10:38:18;;;;;;;;;0.33;0.33;;;;;;;;5117792;27;45323;-72
2022/05/26 10:40:49;;;;;;;;;9.00;6.33;;;;;;;;5108796;27;45913;-72
2022/05/26 10:43:15;;;;;;;;;3.67;2.67;;;;;;;;5099119;27;45683;-72
2022/05/26 10:45:47;;;;;;;;;1.67;0.00;;;;;;;;5098908;27;45466;-73
2022/05/26 10:48:15;;;;;;;;;1.00;0.67;;;;;;;;5099013;27;45387;-71
2022/05/26 10:50:50;;;;;;;;;0.33;0.33;;;;;;;;5099144;27;45328;-72
2022/05/26 10:53:23;;;;;;;;;0.00;0.00;;;;;;;;5098692;27;47436;-72
2022/05/26 10:55:48;;;;;;;;;0.33;0.33;;;;;;;;5098764;27;45356;-72
2022/05/26 10:58:32;;;;;;;;;1.00;1.00;;;;;;;;5080026;27;45848;-72
2022/05/26 11:00:59;;;;;;;;;2.00;0.00;;;;;;;;5078253;28;45510;-72
2022/05/26 11:03:29;;;;;;;;;1.00;1.00;;;;;;;;5078254;28;45483;-72
2022/05/26 11:05:57;;;;;;;;;0.67;0.67;;;;;;;;5077908;28;45339;-72
2022/05/26 11:08:25;;;;;;;;;0.00;0.00;;;;;;;;5078187;28;45450;-73
2022/05/26 11:10:55;;;;;;;;;0.33;0.00;;;;;;;;5078863;28;45382;-72
2022/05/26 11:13:32;;;;;;;;;2.33;0.00;;;;;;;;5077862;28;46276;-73
2022/05/26 11:18:45;;;;;;;;;2.33;0.00;;;;;;;;5078194;28;45352;-73
2022/05/26 11:21:12;;;;;;;;;1.33;1.00;;;;;;;;5078367;28;45361;-73
2022/05/26 11:23:38;;;;;;;;;1.00;1.00;;;;;;;;5077722;28;46167;-72
2022/05/26 11:26:23;;;;;;;;;1.00;0.67;;;;;;;;5087899;27;45420;-72
2022/05/26 11:29:01;;;;;;;;;0.33;0.00;;;;;;;;4995647;28;45380;-72
2022/05/26 11:36:59;;;;;;;;;1.00;1.00;;;;;;;;4974286;28;45438;-72
2022/05/26 11:39:28;;;;;;;;;1.67;1.67;;;;;;;;4974285;28;45471;-73
2022/05/26 11:41:56;;;;;;;;;4.00;1.00;;;;;;;;4975029;28;45326;-72
2022/05/26 11:44:34;;;;;;;;;1.00;1.00;;;;;;;;4974900;28;47107;-73
2022/05/26 11:47:19;;;;;;;;;0.33;0.00;;;;;;;;4974896;28;45403;-72
2022/05/26 11:49:47;;;;;;;;;1.00;1.00;;;;;;;;4972942;28;45703;-73
2022/05/26 11:52:27;;;;;;;;;2.00;0.67;;;;;;;;4974188;28;45756;-73
2022/05/26 11:54:52;;;;;;;;;2.67;2.00;;;;;;;;4996440;28;45486;-74
2022/05/26 11:57:46;;;;;;;;;3.00;2.00;;;;;;;;5014657;28;45513;-75
2022/05/26 12:00:16;;;;;;;;;0.67;0.67;;;;;;;;4917161;28;45590;-73
2022/05/26 12:02:45;;;;;;;;;6.00;4.00;;;;;;;;4917452;28;45428;-73
2022/05/26 12:05:31;;;;;;;;;0.33;0.33;;;;;;;;4931051;28;47065;-75
2022/05/26 12:07:57;;;;;;;;;3.67;1.00;;;;;;;;5009062;28;45508;-73
2022/05/26 12:10:25;;;;;;;;;1.00;1.00;;;;;;;;5016806;28;45542;-73
2022/05/26 12:13:10;;;;;;;;;1.00;1.00;;;;;;;;5032517;28;45846;-75
2022/05/26 12:15:36;;;;;;;;;1.00;1.00;;;;;;;;5001266;28;46770;-73
2022/05/26 12:18:02;;;;;;;;;1.00;1.00;;;;;;;;4994381;28;45282;-73
2022/05/26 12:20:29;;;;;;;;;1.00;1.00;;;;;;;;5009719;28;45329;-74
2022/05/26 12:22:54;;;;;;;;;1.00;1.00;;;;;;;;5015396;28;45693;-73
2022/05/26 12:25:41;;;;;;;;;1.67;1.67;;;;;;;;5010063;28;46300;-75
2022/05/26 12:28:06;;;;;;;;;1.00;1.00;;;;;;;;5004275;28;45499;-77
2022/05/26 12:30:43;;;;;;;;;3.33;2.00;;;;;;;;5000678;28;45460;-74
2022/05/26 12:33:29;;;;;;;;;1.00;0.67;;;;;;;;5006548;28;45373;-73
2022/05/26 12:36:09;;;;;;;;;2.33;1.00;;;;;;;;5027065;27;46874;-73
2022/05/26 12:38:37;;;;;;;;;3.00;2.00;;;;;;;;5077001;28;45252;-74
2022/05/26 12:41:11;;;;;;;;;4.33;3.33;;;;;;;;5091062;27;45415;-73
2022/05/26 12:43:37;;;;;;;;;4.00;1.00;;;;;;;;5097667;27;45349;-73
2022/05/26 12:46:23;;;;;;;;;1.33;1.33;;;;;;;;5097584;27;45994;-73
2022/05/26 12:48:56;;;;;;;;;2.00;2.00;;;;;;;;5097488;27;45312;-73
2022/05/26 12:51:23;;;;;;;;;2.00;1.00;;;;;;;;5101082;27;45438;-73
2022/05/26 12:53:54;;;;;;;;;0.33;0.33;;;;;;;;5101354;27;45502;-73
2022/05/26 12:56:35;;;;;;;;;3.33;1.67;;;;;;;;5100650;27;45702;-73
2022/05/26 12:59:02;;;;;;;;;1.00;1.00;;;;;;;;5100763;27;45394;-74
2022/05/26 13:01:28;;;;;;;;;0.67;0.67;;;;;;;;5101085;27;45240;-73
2022/05/26 13:03:53;;;;;;;;;4.00;4.00;;;;;;;;5101227;27;45259;-73
2022/05/26 13:06:22;;;;;;;;;1.67;1.00;;;;;;;;5100753;27;45390;-73
2022/05/26 13:09:01;;;;;;;;;0.33;0.33;;;;;;;;5100788;27;45319;-73
2022/05/26 13:11:32;;;;;;;;;2.33;1.00;;;;;;;;5099764;27;45482;-73
2022/05/26 13:13:59;;;;;;;;;0.33;0.33;;;;;;;;5101237;27;45372;-73
2022/05/26 13:16:31;;;;;;;;;1.33;1.00;;;;;;;;5100494;27;45517;-73
2022/05/26 13:19:05;;;;;;;;;1.00;1.00;;;;;;;;5100487;27;45294;-73
2022/05/26 13:21:30;;;;;;;;;1.00;0.33;;;;;;;;5100786;27;45343;-73
2022/05/26 13:23:58;;;;;;;;;2.00;2.00;;;;;;;;5100847;27;45358;-73
2022/05/26 13:26:24;;;;;;;;;3.00;2.00;;;;;;;;5100682;27;47042;-73
2022/05/26 13:28:51;;;;;;;;;4.67;2.67;;;;;;;;5100491;27;45304;-73
2022/05/26 13:34:07;;;;;;;;;3.00;1.00;;;;;;;;5100406;27;45316;-74
2022/05/26 13:36:35;;;;;;;;;2.00;1.00;;;;;;;;5100553;27;46437;-73
2022/05/26 13:39:09;;;;;;;;;1.67;1.33;;;;;;;;5100148;27;45301;-73
2022/05/26 13:41:35;;;;;;;;;1.67;1.00;;;;;;;;5100357;27;45329;-73
2022/05/26 13:44:08;;;;;;;;;2.00;1.00;;;;;;;;5100449;27;45527;-73
2022/05/26 13:46:52;;;;;;;;;2.33;1.00;;;;;;;;5099953;27;46569;-73
2022/05/26 13:49:26;;;;;;;;;2.00;1.00;;;;;;;;5099941;27;45320;-73
2022/05/26 13:51:53;;;;;;;;;4.00;1.00;;;;;;;;5100202;27;45360;-73
2022/05/26 13:54:27;;;;;;;;;2.33;1.00;;;;;;;;5100474;27;45383;-73
2022/05/26 13:56:53;;;;;;;;;1.00;1.00;;;;;;;;5100086;27;47237;-74
2022/05/26 13:59:18;;;;;;;;;1.00;1.00;;;;;;;;5099745;27;45304;-73
2022/05/26 14:01:51;;;;;;;;;1.67;1.00;;;;;;;;5099451;27;45399;-73
2022/05/26 14:04:29;;;;;;;;;3.33;2.00;;;;;;;;5100108;27;45250;-73
2022/05/26 14:06:55;;;;;;;;;1.00;1.00;;;;;;;;5099816;27;47198;-73
2022/05/26 14:09:25;;;;;;;;;4.00;2.00;;;;;;;;5099184;27;45412;-73
2022/05/26 14:12:03;;;;;;;;;2.67;2.67;;;;;;;;5100182;27;45348;-73
2022/05/26 14:14:39;;;;;;;;;2.67;2.00;;;;;;;;5100058;27;45521;-73
2022/05/26 14:17:06;;;;;;;;;2.00;1.00;;;;;;;;5099696;27;45411;-73
2022/05/26 14:19:33;;;;;;;;;5.33;2.00;;;;;;;;5099625;27;45327;-74
2022/05/26 14:21:58;;;;;;;;;1.00;1.00;;;;;;;;5099712;27;45483;-73
2022/05/26 14:24:32;;;;;;;;;1.67;0.67;;;;;;;;5099731;27;45440;-74
2022/05/26 14:27:06;;;;;;;;;2.00;2.00;;;;;;;;5099750;27;46403;-74
2022/05/26 14:29:33;;;;;;;;;1.00;0.33;;;;;;;;5099600;27;45135;-73
2022/05/26 14:31:58;;;;;;;;;1.00;1.00;;;;;;;;5099606;27;45201;-73
2022/05/26 14:34:28;;;;;;;;;4.00;1.00;;;;;;;;5099913;27;45369;-73
2022/05/26 14:36:58;;;;;;;;;0.33;0.33;;;;;;;;5099571;27;45332;-73
2022/05/26 14:39:23;;;;;;;;;3.33;2.00;;;;;;;;5098799;27;45217;-73
2022/05/26 14:41:50;;;;;;;;;0.00;0.00;;;;;;;;5099742;27;45359;-73
2022/05/26 14:44:15;;;;;;;;;2.00;1.00;;;;;;;;5099656;27;45481;-73
2022/05/26 14:46:42;;;;;;;;;4.67;4.33;;;;;;;;5099260;27;47184;-73
2022/05/26 14:49:08;;;;;;;;;1.00;1.00;;;;;;;;5099168;27;45517;-73
2022/05/26 14:51:35;;;;;;;;;2.00;0.67;;;;;;;;5099451;27;45257;-73
2022/05/26 14:56:45;;;;;;;;;2.00;1.00;;;;;;;;5099294;27;45394;-73
2022/05/26 14:59:11;;;;;;;;;1.67;1.00;;;;;;;;5099035;27;45316;-73
2022/05/26 15:01:37;;;;;;;;;2.00;0.33;;;;;;;;5099331;27;45272;-73
2022/05/26 15:04:02;;;;;;;;;0.33;0.33;;;;;;;;5099368;27;45317;-73
2022/05/26 15:06:38;;;;;;;;;2.00;0.67;;;;;;;;5098729;27;46897;-73
2022/05/26 15:09:23;;;;;;;;;0.33;0.33;;;;;;;;5098984;27;45249;-74
2022/05/26 15:11:53;;;;;;;;;0.00;0.00;;;;;;;;5098450;27;45225;-73
2022/05/26 15:14:19;;;;;;;;;0.00;0.00;;;;;;;;5097806;27;45500;-73
2022/05/26 15:16:47;;;;;;;;;0.00;0.00;;;;;;;;5098510;27;45911;-75
2022/05/26 15:19:19;;;;;;;;;2.33;1.00;;;;;;;;5098610;27;45354;-74
2022/05/26 15:21:46;;;;;;;;;0.00;0.00;;;;;;;;5098821;27;45321;-74
2022/05/26 15:24:11;;;;;;;;;1.00;0.00;;;;;;;;5099017;27;45690;-74
2022/05/26 15:26:40;;;;;;;;;0.00;0.00;;;;;;;;5098734;27;46396;-76
2022/05/26 15:29:05;;;;;;;;;0.00;0.00;;;;;;;;5097621;27;45416;-75
2022/05/26 15:31:31;;;;;;;;;0.00;0.00;;;;;;;;5098285;27;45304;-76
2022/05/26 15:33:56;;;;;;;;;0.00;0.00;;;;;;;;5098237;27;45459;-76
2022/05/26 15:36:22;;;;;;;;;0.00;0.00;;;;;;;;5098005;27;46573;-76
2022/05/26 15:38:50;;;;;;;;;0.00;0.00;;;;;;;;5097831;27;45572;-76